sensor_id;sensor_type;location;lat;lon;timestamp;P1;durP1;ratioP1;P2;durP2;ratioP2
18090;SDS011;9172;49.948;9.208;2023-02-04T00:01:57;7.43;;;2.80;;
18090;SDS011;9172;49.948;9.208;2023-02-04T00:04:26;12.07;;;3.07;;
18090;SDS011;9172;49.948;9.208;2023-02-04T00:06:56;16.50;;;3.53;;
18090;SDS011;9172;49.948;9.208;2023-02-04T00:09:26;16.53;;;2.63;;
18090;SDS011;9172;49.948;9.208;2023-02-04T00:11:55;15.87;;;2.70;;
18090;SDS011;9172;49.948;9.208;2023-02-04T00:14:25;10.10;;;3.33;;
18090;SDS011;9172;49.948;9.208;2023-02-04T00:16:55;18.70;;;3.60;;
18090;SDS011;9172;49.948;9.208;2023-02-04T00:19:25;22.70;;;3.27;;
18090;SDS011;9172;49.948;9.208;2023-02-04T00:21:54;7.77;;;2.73;;
18090;SDS011;9172;49.948;9.208;2023-02-04T00:24:23;12.17;;;2.93;;
18090;SDS011;9172;49.948;9.208;2023-02-04T00:26:53;15.83;;;3.40;;
18090;SDS011;9172;49.948;9.208;2023-02-04T00:29:22;12.57;;;3.07;;
18090;SDS011;9172;49.948;9.208;2023-02-04T00:31:52;9.50;;;2.40;;
18090;SDS011;9172;49.948;9.208;2023-02-04T00:34:20;12.33;;;3.37;;
18090;SDS011;9172;49.948;9.208;2023-02-04T00:36:49;9.03;;;2.90;;
18090;SDS011;9172;49.948;9.208;2023-02-04T00:39:18;10.57;;;2.87;;
18090;SDS011;9172;49.948;9.208;2023-02-04T00:41:47;10.97;;;2.47;;
18090;SDS011;9172;49.948;9.208;2023-02-04T00:44:16;12.17;;;2.77;;
18090;SDS011;9172;49.948;9.208;2023-02-04T00:46:45;18.07;;;2.73;;
18090;SDS011;9172;49.948;9.208;2023-02-04T00:49:14;15.57;;;3.63;;
18090;SDS011;9172;49.948;9.208;2023-02-04T00:51:43;8.97;;;2.40;;
18090;SDS011;9172;49.948;9.208;2023-02-04T00:54:13;20.67;;;3.23;;
18090;SDS011;9172;49.948;9.208;2023-02-04T00:56:42;9.30;;;2.40;;
18090;SDS011;9172;49.948;9.208;2023-02-04T00:59:11;10.10;;;2.90;;
18090;SDS011;9172;49.948;9.208;2023-02-04T01:01:40;9.40;;;2.37;;
18090;SDS011;9172;49.948;9.208;2023-02-04T01:04:10;14.37;;;2.47;;
18090;SDS011;9172;49.948;9.208;2023-02-04T01:06:38;9.40;;;2.93;;
18090;SDS011;9172;49.948;9.208;2023-02-04T01:09:07;6.43;;;2.53;;
18090;SDS011;9172;49.948;9.208;2023-02-04T01:11:37;15.87;;;2.60;;
18090;SDS011;9172;49.948;9.208;2023-02-04T01:14:05;5.00;;;1.83;;
18090;SDS011;9172;49.948;9.208;2023-02-04T01:16:34;8.87;;;2.27;;
18090;SDS011;9172;49.948;9.208;2023-02-04T01:19:02;14.93;;;3.83;;
18090;SDS011;9172;49.948;9.208;2023-02-04T01:21:32;14.60;;;2.60;;
18090;SDS011;9172;49.948;9.208;2023-02-04T01:24:00;9.77;;;2.80;;
18090;SDS011;9172;49.948;9.208;2023-02-04T01:26:29;7.30;;;2.40;;
18090;SDS011;9172;49.948;9.208;2023-02-04T01:28:57;14.37;;;3.20;;
18090;SDS011;9172;49.948;9.208;2023-02-04T01:31:26;9.90;;;2.53;;
18090;SDS011;9172;49.948;9.208;2023-02-04T01:33:56;8.47;;;2.90;;
18090;SDS011;9172;49.948;9.208;2023-02-04T01:36:25;16.07;;;3.17;;
18090;SDS011;9172;49.948;9.208;2023-02-04T01:38:54;12.67;;;3.50;;
18090;SDS011;9172;49.948;9.208;2023-02-04T01:41:25;12.93;;;2.80;;
18090;SDS011;9172;49.948;9.208;2023-02-04T01:43:54;16.33;;;3.03;;
18090;SDS011;9172;49.948;9.208;2023-02-04T01:46:24;11.37;;;2.00;;
18090;SDS011;9172;49.948;9.208;2023-02-04T01:48:53;13.30;;;3.23;;
18090;SDS011;9172;49.948;9.208;2023-02-04T01:51:25;12.37;;;3.10;;
18090;SDS011;9172;49.948;9.208;2023-02-04T01:53:56;17.63;;;3.17;;
18090;SDS011;9172;49.948;9.208;2023-02-04T01:56:26;10.03;;;2.73;;
18090;SDS011;9172;49.948;9.208;2023-02-04T01:58:56;10.53;;;2.50;;
18090;SDS011;9172;49.948;9.208;2023-02-04T02:01:34;15.03;;;3.30;;
18090;SDS011;9172;49.948;9.208;2023-02-04T02:04:04;5.90;;;2.53;;
18090;SDS011;9172;49.948;9.208;2023-02-04T02:06:32;7.07;;;2.90;;
18090;SDS011;9172;49.948;9.208;2023-02-04T02:09:03;15.80;;;3.00;;
18090;SDS011;9172;49.948;9.208;2023-02-04T02:11:32;7.57;;;2.10;;
18090;SDS011;9172;49.948;9.208;2023-02-04T02:14:01;20.70;;;3.10;;
18090;SDS011;9172;49.948;9.208;2023-02-04T02:16:30;8.77;;;2.27;;
18090;SDS011;9172;49.948;9.208;2023-02-04T02:18:59;18.50;;;2.83;;
18090;SDS011;9172;49.948;9.208;2023-02-04T02:21:30;14.90;;;2.30;;
18090;SDS011;9172;49.948;9.208;2023-02-04T02:24:04;22.30;;;3.27;;
18090;SDS011;9172;49.948;9.208;2023-02-04T02:26:46;15.43;;;3.63;;
18090;SDS011;9172;49.948;9.208;2023-02-04T02:29:15;13.20;;;2.33;;
18090;SDS011;9172;49.948;9.208;2023-02-04T02:31:43;12.27;;;2.30;;
18090;SDS011;9172;49.948;9.208;2023-02-04T02:34:13;12.80;;;2.27;;
18090;SDS011;9172;49.948;9.208;2023-02-04T02:36:43;19.13;;;2.80;;
18090;SDS011;9172;49.948;9.208;2023-02-04T02:39:11;8.13;;;2.93;;
18090;SDS011;9172;49.948;9.208;2023-02-04T02:41:42;14.50;;;2.50;;
18090;SDS011;9172;49.948;9.208;2023-02-04T02:44:10;13.70;;;2.80;;
18090;SDS011;9172;49.948;9.208;2023-02-04T02:46:40;12.03;;;2.40;;
18090;SDS011;9172;49.948;9.208;2023-02-04T02:49:10;11.60;;;2.67;;
18090;SDS011;9172;49.948;9.208;2023-02-04T02:51:41;16.33;;;2.97;;
18090;SDS011;9172;49.948;9.208;2023-02-04T02:54:13;9.60;;;2.63;;
18090;SDS011;9172;49.948;9.208;2023-02-04T02:56:46;15.90;;;2.93;;
18090;SDS011;9172;49.948;9.208;2023-02-04T02:59:15;12.57;;;2.53;;
18090;SDS011;9172;49.948;9.208;2023-02-04T03:01:44;14.20;;;2.93;;
18090;SDS011;9172;49.948;9.208;2023-02-04T03:04:16;8.37;;;2.70;;
18090;SDS011;9172;49.948;9.208;2023-02-04T03:06:46;11.13;;;2.30;;
18090;SDS011;9172;49.948;9.208;2023-02-04T03:09:15;13.23;;;2.40;;
18090;SDS011;9172;49.948;9.208;2023-02-04T03:11:44;10.03;;;2.27;;
18090;SDS011;9172;49.948;9.208;2023-02-04T03:14:14;13.27;;;3.30;;
18090;SDS011;9172;49.948;9.208;2023-02-04T03:16:43;19.67;;;2.53;;
18090;SDS011;9172;49.948;9.208;2023-02-04T03:19:12;16.43;;;2.63;;
18090;SDS011;9172;49.948;9.208;2023-02-04T03:21:41;12.03;;;2.63;;
18090;SDS011;9172;49.948;9.208;2023-02-04T03:24:12;11.50;;;2.60;;
18090;SDS011;9172;49.948;9.208;2023-02-04T03:26:41;13.37;;;2.90;;
18090;SDS011;9172;49.948;9.208;2023-02-04T03:29:11;7.83;;;2.20;;
18090;SDS011;9172;49.948;9.208;2023-02-04T03:31:40;11.07;;;2.73;;
18090;SDS011;9172;49.948;9.208;2023-02-04T03:34:09;16.17;;;2.67;;
18090;SDS011;9172;49.948;9.208;2023-02-04T03:36:38;14.83;;;2.73;;
18090;SDS011;9172;49.948;9.208;2023-02-04T03:39:06;12.97;;;2.60;;
18090;SDS011;9172;49.948;9.208;2023-02-04T03:41:35;11.93;;;2.80;;
18090;SDS011;9172;49.948;9.208;2023-02-04T03:44:05;8.17;;;2.43;;
18090;SDS011;9172;49.948;9.208;2023-02-04T03:46:34;11.63;;;3.30;;
18090;SDS011;9172;49.948;9.208;2023-02-04T03:49:03;8.93;;;2.03;;
18090;SDS011;9172;49.948;9.208;2023-02-04T03:51:32;7.70;;;2.73;;
18090;SDS011;9172;49.948;9.208;2023-02-04T03:54:01;23.57;;;2.77;;
18090;SDS011;9172;49.948;9.208;2023-02-04T03:56:29;12.97;;;3.13;;
18090;SDS011;9172;49.948;9.208;2023-02-04T03:58:59;9.90;;;2.10;;
18090;SDS011;9172;49.948;9.208;2023-02-04T04:01:28;9.90;;;2.67;;
18090;SDS011;9172;49.948;9.208;2023-02-04T04:03:57;14.47;;;2.40;;
18090;SDS011;9172;49.948;9.208;2023-02-04T04:06:25;14.33;;;2.93;;
18090;SDS011;9172;49.948;9.208;2023-02-04T04:08:55;14.93;;;2.23;;
18090;SDS011;9172;49.948;9.208;2023-02-04T04:11:23;17.40;;;2.50;;
18090;SDS011;9172;49.948;9.208;2023-02-04T04:13:53;9.97;;;2.13;;
18090;SDS011;9172;49.948;9.208;2023-02-04T04:16:21;18.43;;;2.83;;
18090;SDS011;9172;49.948;9.208;2023-02-04T04:18:50;19.83;;;3.40;;
18090;SDS011;9172;49.948;9.208;2023-02-04T04:21:18;8.57;;;3.03;;
18090;SDS011;9172;49.948;9.208;2023-02-04T04:23:47;18.53;;;2.77;;
18090;SDS011;9172;49.948;9.208;2023-02-04T04:26:17;16.43;;;2.73;;
18090;SDS011;9172;49.948;9.208;2023-02-04T04:28:46;18.87;;;3.43;;
18090;SDS011;9172;49.948;9.208;2023-02-04T04:31:16;16.97;;;2.70;;
18090;SDS011;9172;49.948;9.208;2023-02-04T04:33:44;18.37;;;2.90;;
18090;SDS011;9172;49.948;9.208;2023-02-04T04:36:14;19.60;;;3.50;;
18090;SDS011;9172;49.948;9.208;2023-02-04T04:38:44;9.40;;;2.20;;
18090;SDS011;9172;49.948;9.208;2023-02-04T04:41:12;12.07;;;2.33;;
18090;SDS011;9172;49.948;9.208;2023-02-04T04:43:41;11.47;;;3.60;;
18090;SDS011;9172;49.948;9.208;2023-02-04T04:46:09;19.33;;;3.40;;
18090;SDS011;9172;49.948;9.208;2023-02-04T04:48:39;18.50;;;2.97;;
18090;SDS011;9172;49.948;9.208;2023-02-04T04:51:16;13.53;;;1.80;;
18090;SDS011;9172;49.948;9.208;2023-02-04T04:53:44;13.63;;;3.17;;
18090;SDS011;9172;49.948;9.208;2023-02-04T04:56:13;17.07;;;3.30;;
18090;SDS011;9172;49.948;9.208;2023-02-04T04:58:44;11.93;;;2.30;;
18090;SDS011;9172;49.948;9.208;2023-02-04T05:01:13;15.23;;;2.33;;
18090;SDS011;9172;49.948;9.208;2023-02-04T05:03:42;19.47;;;3.67;;
18090;SDS011;9172;49.948;9.208;2023-02-04T05:06:11;17.40;;;2.83;;
18090;SDS011;9172;49.948;9.208;2023-02-04T05:08:41;13.37;;;2.60;;
18090;SDS011;9172;49.948;9.208;2023-02-04T05:11:11;10.73;;;2.53;;
18090;SDS011;9172;49.948;9.208;2023-02-04T05:13:40;15.93;;;3.10;;
18090;SDS011;9172;49.948;9.208;2023-02-04T05:16:10;12.47;;;2.83;;
18090;SDS011;9172;49.948;9.208;2023-02-04T05:18:38;16.47;;;2.83;;
18090;SDS011;9172;49.948;9.208;2023-02-04T05:21:07;17.63;;;3.40;;
18090;SDS011;9172;49.948;9.208;2023-02-04T05:23:37;14.50;;;2.50;;
18090;SDS011;9172;49.948;9.208;2023-02-04T05:26:06;13.93;;;2.50;;
18090;SDS011;9172;49.948;9.208;2023-02-04T05:28:35;14.77;;;2.80;;
18090;SDS011;9172;49.948;9.208;2023-02-04T05:31:04;14.47;;;3.07;;
18090;SDS011;9172;49.948;9.208;2023-02-04T05:33:34;18.37;;;3.33;;
18090;SDS011;9172;49.948;9.208;2023-02-04T05:36:03;15.17;;;3.10;;
18090;SDS011;9172;49.948;9.208;2023-02-04T05:38:32;14.67;;;2.87;;
18090;SDS011;9172;49.948;9.208;2023-02-04T05:41:00;14.10;;;2.67;;
18090;SDS011;9172;49.948;9.208;2023-02-04T05:43:29;15.17;;;3.17;;
18090;SDS011;9172;49.948;9.208;2023-02-04T05:45:58;15.67;;;3.53;;
18090;SDS011;9172;49.948;9.208;2023-02-04T05:48:28;12.83;;;3.60;;
18090;SDS011;9172;49.948;9.208;2023-02-04T05:50:56;19.00;;;2.73;;
18090;SDS011;9172;49.948;9.208;2023-02-04T05:53:25;14.53;;;2.77;;
18090;SDS011;9172;49.948;9.208;2023-02-04T05:55:53;21.67;;;3.40;;
18090;SDS011;9172;49.948;9.208;2023-02-04T05:58:22;20.77;;;3.13;;
18090;SDS011;9172;49.948;9.208;2023-02-04T06:00:51;8.93;;;3.10;;
18090;SDS011;9172;49.948;9.208;2023-02-04T06:03:20;10.90;;;2.30;;
18090;SDS011;9172;49.948;9.208;2023-02-04T06:05:48;17.47;;;3.03;;
18090;SDS011;9172;49.948;9.208;2023-02-04T06:08:18;15.80;;;2.87;;
18090;SDS011;9172;49.948;9.208;2023-02-04T06:10:46;20.43;;;3.23;;
18090;SDS011;9172;49.948;9.208;2023-02-04T06:13:15;19.20;;;3.10;;
18090;SDS011;9172;49.948;9.208;2023-02-04T06:15:44;17.80;;;2.90;;
18090;SDS011;9172;49.948;9.208;2023-02-04T06:18:12;20.87;;;3.47;;
18090;SDS011;9172;49.948;9.208;2023-02-04T06:20:41;15.50;;;2.80;;
18090;SDS011;9172;49.948;9.208;2023-02-04T06:23:09;12.33;;;3.37;;
18090;SDS011;9172;49.948;9.208;2023-02-04T06:25:39;16.47;;;3.13;;
18090;SDS011;9172;49.948;9.208;2023-02-04T06:28:07;18.63;;;3.30;;
18090;SDS011;9172;49.948;9.208;2023-02-04T06:30:36;13.27;;;3.70;;
18090;SDS011;9172;49.948;9.208;2023-02-04T06:33:04;21.60;;;3.97;;
18090;SDS011;9172;49.948;9.208;2023-02-04T06:35:33;11.13;;;3.87;;
18090;SDS011;9172;49.948;9.208;2023-02-04T06:38:03;20.13;;;2.80;;
18090;SDS011;9172;49.948;9.208;2023-02-04T06:40:31;13.60;;;3.13;;
18090;SDS011;9172;49.948;9.208;2023-02-04T06:43:01;22.70;;;3.90;;
18090;SDS011;9172;49.948;9.208;2023-02-04T06:45:30;18.60;;;3.70;;
18090;SDS011;9172;49.948;9.208;2023-02-04T06:47:59;15.60;;;3.80;;
18090;SDS011;9172;49.948;9.208;2023-02-04T06:50:27;25.87;;;6.80;;
18090;SDS011;9172;49.948;9.208;2023-02-04T06:52:56;21.10;;;5.40;;
18090;SDS011;9172;49.948;9.208;2023-02-04T06:55:25;17.83;;;4.90;;
18090;SDS011;9172;49.948;9.208;2023-02-04T06:57:54;21.93;;;5.03;;
18090;SDS011;9172;49.948;9.208;2023-02-04T07:00:22;25.93;;;3.90;;
18090;SDS011;9172;49.948;9.208;2023-02-04T07:02:51;18.43;;;4.07;;
18090;SDS011;9172;49.948;9.208;2023-02-04T07:05:19;10.87;;;3.07;;
18090;SDS011;9172;49.948;9.208;2023-02-04T07:07:49;21.07;;;3.40;;
18090;SDS011;9172;49.948;9.208;2023-02-04T07:10:17;19.13;;;4.80;;
18090;SDS011;9172;49.948;9.208;2023-02-04T07:12:46;12.73;;;4.03;;
18090;SDS011;9172;49.948;9.208;2023-02-04T07:15:15;12.00;;;3.83;;
18090;SDS011;9172;49.948;9.208;2023-02-04T07:17:44;22.80;;;6.90;;
18090;SDS011;9172;49.948;9.208;2023-02-04T07:20:13;10.13;;;3.00;;
18090;SDS011;9172;49.948;9.208;2023-02-04T07:22:43;18.63;;;4.17;;
18090;SDS011;9172;49.948;9.208;2023-02-04T07:25:13;19.17;;;4.37;;
18090;SDS011;9172;49.948;9.208;2023-02-04T07:27:43;18.33;;;3.57;;
18090;SDS011;9172;49.948;9.208;2023-02-04T07:30:13;18.23;;;4.00;;
18090;SDS011;9172;49.948;9.208;2023-02-04T07:32:41;12.53;;;4.20;;
18090;SDS011;9172;49.948;9.208;2023-02-04T07:35:10;26.17;;;5.60;;
18090;SDS011;9172;49.948;9.208;2023-02-04T07:37:39;24.33;;;7.03;;
18090;SDS011;9172;49.948;9.208;2023-02-04T07:40:09;33.77;;;8.47;;
18090;SDS011;9172;49.948;9.208;2023-02-04T07:42:39;29.13;;;9.03;;
18090;SDS011;9172;49.948;9.208;2023-02-04T07:45:08;21.57;;;7.70;;
18090;SDS011;9172;49.948;9.208;2023-02-04T07:47:37;23.60;;;7.60;;
18090;SDS011;9172;49.948;9.208;2023-02-04T07:50:05;19.23;;;6.83;;
18090;SDS011;9172;49.948;9.208;2023-02-04T07:52:34;21.63;;;7.67;;
18090;SDS011;9172;49.948;9.208;2023-02-04T07:55:04;28.80;;;10.03;;
18090;SDS011;9172;49.948;9.208;2023-02-04T07:57:33;59.73;;;23.87;;
18090;SDS011;9172;49.948;9.208;2023-02-04T08:00:02;55.77;;;21.80;;
18090;SDS011;9172;49.948;9.208;2023-02-04T08:02:32;19.27;;;6.33;;
18090;SDS011;9172;49.948;9.208;2023-02-04T08:05:01;31.87;;;9.37;;
18090;SDS011;9172;49.948;9.208;2023-02-04T08:07:30;20.03;;;5.53;;
18090;SDS011;9172;49.948;9.208;2023-02-04T08:09:59;19.20;;;4.40;;
18090;SDS011;9172;49.948;9.208;2023-02-04T08:12:28;15.60;;;3.60;;
18090;SDS011;9172;49.948;9.208;2023-02-04T08:14:56;15.27;;;4.27;;
18090;SDS011;9172;49.948;9.208;2023-02-04T08:17:25;17.63;;;3.83;;
18090;SDS011;9172;49.948;9.208;2023-02-04T08:19:53;16.33;;;3.97;;
18090;SDS011;9172;49.948;9.208;2023-02-04T08:22:23;19.00;;;4.23;;
18090;SDS011;9172;49.948;9.208;2023-02-04T08:24:51;17.70;;;3.40;;
18090;SDS011;9172;49.948;9.208;2023-02-04T08:27:20;21.57;;;3.80;;
18090;SDS011;9172;49.948;9.208;2023-02-04T08:29:49;16.60;;;3.77;;
18090;SDS011;9172;49.948;9.208;2023-02-04T08:32:20;16.73;;;4.40;;
18090;SDS011;9172;49.948;9.208;2023-02-04T08:34:49;18.30;;;3.83;;
18090;SDS011;9172;49.948;9.208;2023-02-04T08:37:18;11.73;;;2.70;;
18090;SDS011;9172;49.948;9.208;2023-02-04T08:39:48;13.13;;;3.23;;
18090;SDS011;9172;49.948;9.208;2023-02-04T08:42:16;13.83;;;3.27;;
18090;SDS011;9172;49.948;9.208;2023-02-04T08:44:46;18.90;;;3.90;;
18090;SDS011;9172;49.948;9.208;2023-02-04T08:47:15;11.63;;;3.03;;
18090;SDS011;9172;49.948;9.208;2023-02-04T08:49:44;14.40;;;3.10;;
18090;SDS011;9172;49.948;9.208;2023-02-04T08:52:13;14.63;;;3.83;;
18090;SDS011;9172;49.948;9.208;2023-02-04T08:54:42;12.70;;;3.67;;
18090;SDS011;9172;49.948;9.208;2023-02-04T08:57:12;23.77;;;4.13;;
18090;SDS011;9172;49.948;9.208;2023-02-04T08:59:41;25.47;;;3.50;;
18090;SDS011;9172;49.948;9.208;2023-02-04T09:02:11;17.33;;;3.80;;
18090;SDS011;9172;49.948;9.208;2023-02-04T09:04:41;19.17;;;3.27;;
18090;SDS011;9172;49.948;9.208;2023-02-04T09:07:09;16.07;;;3.47;;
18090;SDS011;9172;49.948;9.208;2023-02-04T09:09:39;13.63;;;2.77;;
18090;SDS011;9172;49.948;9.208;2023-02-04T09:12:07;10.33;;;3.10;;
18090;SDS011;9172;49.948;9.208;2023-02-04T09:14:37;14.33;;;3.50;;
18090;SDS011;9172;49.948;9.208;2023-02-04T09:17:06;10.43;;;2.87;;
18090;SDS011;9172;49.948;9.208;2023-02-04T09:19:35;12.27;;;3.20;;
18090;SDS011;9172;49.948;9.208;2023-02-04T09:22:04;13.10;;;3.27;;
18090;SDS011;9172;49.948;9.208;2023-02-04T09:24:32;14.37;;;3.00;;
18090;SDS011;9172;49.948;9.208;2023-02-04T09:27:01;16.93;;;3.43;;
18090;SDS011;9172;49.948;9.208;2023-02-04T09:29:30;13.73;;;3.07;;
18090;SDS011;9172;49.948;9.208;2023-02-04T09:31:59;19.17;;;3.83;;
18090;SDS011;9172;49.948;9.208;2023-02-04T09:37:05;28.30;;;4.70;;
18090;SDS011;9172;49.948;9.208;2023-02-04T09:39:34;22.90;;;4.57;;
18090;SDS011;9172;49.948;9.208;2023-02-04T09:42:03;17.03;;;4.00;;
18090;SDS011;9172;49.948;9.208;2023-02-04T09:44:32;18.53;;;4.17;;
18090;SDS011;9172;49.948;9.208;2023-02-04T09:47:01;22.70;;;4.50;;
18090;SDS011;9172;49.948;9.208;2023-02-04T09:49:30;12.73;;;3.67;;
18090;SDS011;9172;49.948;9.208;2023-02-04T09:54:36;18.73;;;3.20;;
18090;SDS011;9172;49.948;9.208;2023-02-04T09:57:07;10.53;;;3.07;;
18090;SDS011;9172;49.948;9.208;2023-02-04T09:59:41;12.37;;;2.73;;
18090;SDS011;9172;49.948;9.208;2023-02-04T10:02:16;10.93;;;3.23;;
18090;SDS011;9172;49.948;9.208;2023-02-04T10:04:48;12.13;;;2.70;;
18090;SDS011;9172;49.948;9.208;2023-02-04T10:07:20;13.97;;;3.20;;
18090;SDS011;9172;49.948;9.208;2023-02-04T10:09:51;17.23;;;3.03;;
18090;SDS011;9172;49.948;9.208;2023-02-04T10:12:22;9.97;;;2.27;;
18090;SDS011;9172;49.948;9.208;2023-02-04T10:14:50;15.80;;;3.13;;
18090;SDS011;9172;49.948;9.208;2023-02-04T10:17:20;16.47;;;2.70;;
18090;SDS011;9172;49.948;9.208;2023-02-04T10:19:49;12.60;;;3.10;;
18090;SDS011;9172;49.948;9.208;2023-02-04T10:22:19;12.37;;;2.40;;
18090;SDS011;9172;49.948;9.208;2023-02-04T10:24:48;13.40;;;2.77;;
18090;SDS011;9172;49.948;9.208;2023-02-04T10:27:19;12.17;;;2.70;;
18090;SDS011;9172;49.948;9.208;2023-02-04T10:29:55;9.10;;;2.43;;
18090;SDS011;9172;49.948;9.208;2023-02-04T10:32:28;18.53;;;3.40;;
18090;SDS011;9172;49.948;9.208;2023-02-04T10:34:58;17.80;;;3.80;;
18090;SDS011;9172;49.948;9.208;2023-02-04T10:37:28;11.37;;;2.77;;
18090;SDS011;9172;49.948;9.208;2023-02-04T10:39:57;10.43;;;2.50;;
18090;SDS011;9172;49.948;9.208;2023-02-04T10:42:27;13.10;;;4.00;;
18090;SDS011;9172;49.948;9.208;2023-02-04T10:44:57;19.63;;;4.80;;
18090;SDS011;9172;49.948;9.208;2023-02-04T10:47:26;17.70;;;3.83;;
18090;SDS011;9172;49.948;9.208;2023-02-04T10:49:56;16.90;;;6.33;;
18090;SDS011;9172;49.948;9.208;2023-02-04T10:52:32;13.73;;;3.23;;
18090;SDS011;9172;49.948;9.208;2023-02-04T10:55:02;9.90;;;2.73;;
18090;SDS011;9172;49.948;9.208;2023-02-04T10:57:34;19.80;;;3.37;;
18090;SDS011;9172;49.948;9.208;2023-02-04T11:00:13;9.90;;;2.90;;
18090;SDS011;9172;49.948;9.208;2023-02-04T11:02:42;23.90;;;3.57;;
18090;SDS011;9172;49.948;9.208;2023-02-04T11:05:14;12.13;;;3.13;;
18090;SDS011;9172;49.948;9.208;2023-02-04T11:07:44;10.13;;;2.40;;
18090;SDS011;9172;49.948;9.208;2023-02-04T11:10:15;14.03;;;2.87;;
18090;SDS011;9172;49.948;9.208;2023-02-04T11:12:45;15.63;;;2.60;;
18090;SDS011;9172;49.948;9.208;2023-02-04T11:18:13;9.93;;;2.57;;
18090;SDS011;9172;49.948;9.208;2023-02-04T11:20:55;14.87;;;2.40;;
18090;SDS011;9172;49.948;9.208;2023-02-04T11:23:35;9.23;;;2.73;;
18090;SDS011;9172;49.948;9.208;2023-02-04T11:26:08;13.87;;;4.70;;
18090;SDS011;9172;49.948;9.208;2023-02-04T11:28:44;9.63;;;2.60;;
18090;SDS011;9172;49.948;9.208;2023-02-04T11:31:40;11.83;;;3.03;;
18090;SDS011;9172;49.948;9.208;2023-02-04T11:34:23;9.93;;;3.00;;
18090;SDS011;9172;49.948;9.208;2023-02-04T11:36:56;11.57;;;2.90;;
18090;SDS011;9172;49.948;9.208;2023-02-04T11:39:44;12.47;;;2.90;;
18090;SDS011;9172;49.948;9.208;2023-02-04T11:42:18;7.73;;;3.13;;
18090;SDS011;9172;49.948;9.208;2023-02-04T11:44:48;10.70;;;4.47;;
18090;SDS011;9172;49.948;9.208;2023-02-04T11:47:19;11.73;;;3.07;;
18090;SDS011;9172;49.948;9.208;2023-02-04T11:49:52;17.13;;;4.43;;
18090;SDS011;9172;49.948;9.208;2023-02-04T11:52:24;7.63;;;2.33;;
18090;SDS011;9172;49.948;9.208;2023-02-04T11:54:53;9.23;;;2.13;;
18090;SDS011;9172;49.948;9.208;2023-02-04T11:57:23;7.23;;;2.03;;
18090;SDS011;9172;49.948;9.208;2023-02-04T11:59:53;4.17;;;1.70;;
18090;SDS011;9172;49.948;9.208;2023-02-04T12:02:22;7.63;;;1.90;;
18090;SDS011;9172;49.948;9.208;2023-02-04T12:04:52;10.87;;;2.53;;
18090;SDS011;9172;49.948;9.208;2023-02-04T12:07:23;4.43;;;2.13;;
18090;SDS011;9172;49.948;9.208;2023-02-04T12:09:54;7.97;;;2.43;;
18090;SDS011;9172;49.948;9.208;2023-02-04T12:12:24;13.27;;;2.50;;
18090;SDS011;9172;49.948;9.208;2023-02-04T12:15:00;6.53;;;2.17;;
18090;SDS011;9172;49.948;9.208;2023-02-04T12:17:29;7.90;;;1.40;;
18090;SDS011;9172;49.948;9.208;2023-02-04T12:19:59;8.33;;;2.47;;
18090;SDS011;9172;49.948;9.208;2023-02-04T12:22:28;10.20;;;2.07;;
18090;SDS011;9172;49.948;9.208;2023-02-04T12:24:58;9.97;;;2.17;;
18090;SDS011;9172;49.948;9.208;2023-02-04T12:27:27;6.80;;;2.30;;
18090;SDS011;9172;49.948;9.208;2023-02-04T12:29:57;8.70;;;2.03;;
18090;SDS011;9172;49.948;9.208;2023-02-04T12:32:26;11.13;;;1.90;;
18090;SDS011;9172;49.948;9.208;2023-02-04T12:34:54;9.10;;;1.87;;
18090;SDS011;9172;49.948;9.208;2023-02-04T12:37:23;4.17;;;1.50;;
18090;SDS011;9172;49.948;9.208;2023-02-04T12:39:52;7.50;;;1.83;;
18090;SDS011;9172;49.948;9.208;2023-02-04T12:42:20;8.57;;;2.83;;
18090;SDS011;9172;49.948;9.208;2023-02-04T12:44:50;5.03;;;1.80;;
18090;SDS011;9172;49.948;9.208;2023-02-04T12:47:18;5.47;;;1.30;;
18090;SDS011;9172;49.948;9.208;2023-02-04T12:49:47;4.53;;;1.37;;
18090;SDS011;9172;49.948;9.208;2023-02-04T12:52:16;6.40;;;1.57;;
18090;SDS011;9172;49.948;9.208;2023-02-04T12:54:44;3.53;;;1.20;;
18090;SDS011;9172;49.948;9.208;2023-02-04T12:57:13;6.73;;;1.87;;
18090;SDS011;9172;49.948;9.208;2023-02-04T12:59:44;10.37;;;1.60;;
18090;SDS011;9172;49.948;9.208;2023-02-04T13:02:14;5.57;;;2.07;;
18090;SDS011;9172;49.948;9.208;2023-02-04T13:04:43;7.53;;;1.97;;
18090;SDS011;9172;49.948;9.208;2023-02-04T13:07:13;9.50;;;2.00;;
18090;SDS011;9172;49.948;9.208;2023-02-04T13:09:42;9.27;;;1.70;;
18090;SDS011;9172;49.948;9.208;2023-02-04T13:12:10;7.83;;;1.63;;
18090;SDS011;9172;49.948;9.208;2023-02-04T13:14:40;12.73;;;2.20;;
18090;SDS011;9172;49.948;9.208;2023-02-04T13:17:09;4.13;;;1.70;;
18090;SDS011;9172;49.948;9.208;2023-02-04T13:19:38;15.27;;;5.53;;
18090;SDS011;9172;49.948;9.208;2023-02-04T13:22:08;23.80;;;5.93;;
18090;SDS011;9172;49.948;9.208;2023-02-04T13:24:36;9.30;;;2.00;;
18090;SDS011;9172;49.948;9.208;2023-02-04T13:27:07;6.63;;;2.00;;
18090;SDS011;9172;49.948;9.208;2023-02-04T13:29:35;5.70;;;1.80;;
18090;SDS011;9172;49.948;9.208;2023-02-04T13:32:04;5.43;;;1.70;;
18090;SDS011;9172;49.948;9.208;2023-02-04T13:34:33;8.03;;;2.03;;
18090;SDS011;9172;49.948;9.208;2023-02-04T13:37:02;6.03;;;1.47;;
18090;SDS011;9172;49.948;9.208;2023-02-04T13:39:32;15.13;;;2.40;;
18090;SDS011;9172;49.948;9.208;2023-02-04T13:42:01;8.57;;;2.57;;
18090;SDS011;9172;49.948;9.208;2023-02-04T13:44:30;4.30;;;1.77;;
18090;SDS011;9172;49.948;9.208;2023-02-04T13:46:59;5.87;;;1.87;;
18090;SDS011;9172;49.948;9.208;2023-02-04T13:49:29;6.33;;;1.67;;
18090;SDS011;9172;49.948;9.208;2023-02-04T13:51:58;8.57;;;1.70;;
18090;SDS011;9172;49.948;9.208;2023-02-04T13:54:27;4.57;;;1.47;;
18090;SDS011;9172;49.948;9.208;2023-02-04T13:56:56;6.50;;;1.30;;
18090;SDS011;9172;49.948;9.208;2023-02-04T13:59:25;5.30;;;1.83;;
18090;SDS011;9172;49.948;9.208;2023-02-04T14:01:55;6.63;;;1.80;;
18090;SDS011;9172;49.948;9.208;2023-02-04T14:04:24;9.00;;;1.93;;
18090;SDS011;9172;49.948;9.208;2023-02-04T14:06:52;5.90;;;1.50;;
18090;SDS011;9172;49.948;9.208;2023-02-04T14:09:21;6.47;;;1.60;;
18090;SDS011;9172;49.948;9.208;2023-02-04T14:11:50;16.17;;;3.87;;
18090;SDS011;9172;49.948;9.208;2023-02-04T14:14:19;6.90;;;1.77;;
18090;SDS011;9172;49.948;9.208;2023-02-04T14:16:48;10.87;;;1.93;;
18090;SDS011;9172;49.948;9.208;2023-02-04T14:19:17;17.47;;;2.73;;
18090;SDS011;9172;49.948;9.208;2023-02-04T14:21:46;4.77;;;1.63;;
18090;SDS011;9172;49.948;9.208;2023-02-04T14:24:15;8.83;;;1.90;;
18090;SDS011;9172;49.948;9.208;2023-02-04T14:26:45;8.47;;;1.63;;
18090;SDS011;9172;49.948;9.208;2023-02-04T14:29:15;6.17;;;1.70;;
18090;SDS011;9172;49.948;9.208;2023-02-04T14:31:44;3.57;;;1.30;;
18090;SDS011;9172;49.948;9.208;2023-02-04T14:34:12;9.90;;;1.63;;
18090;SDS011;9172;49.948;9.208;2023-02-04T14:36:42;3.93;;;1.97;;
18090;SDS011;9172;49.948;9.208;2023-02-04T14:39:10;11.97;;;1.87;;
18090;SDS011;9172;49.948;9.208;2023-02-04T14:41:39;3.90;;;2.03;;
18090;SDS011;9172;49.948;9.208;2023-02-04T14:44:08;10.97;;;2.20;;
18090;SDS011;9172;49.948;9.208;2023-02-04T14:46:40;6.93;;;2.00;;
18090;SDS011;9172;49.948;9.208;2023-02-04T14:49:10;13.47;;;3.27;;
18090;SDS011;9172;49.948;9.208;2023-02-04T14:51:39;8.77;;;2.00;;
18090;SDS011;9172;49.948;9.208;2023-02-04T14:54:08;8.77;;;1.73;;
18090;SDS011;9172;49.948;9.208;2023-02-04T14:56:37;5.20;;;1.77;;
18090;SDS011;9172;49.948;9.208;2023-02-04T14:59:05;6.47;;;1.50;;
18090;SDS011;9172;49.948;9.208;2023-02-04T15:01:35;7.67;;;1.87;;
18090;SDS011;9172;49.948;9.208;2023-02-04T15:04:03;13.10;;;2.33;;
18090;SDS011;9172;49.948;9.208;2023-02-04T15:06:32;6.33;;;1.70;;
18090;SDS011;9172;49.948;9.208;2023-02-04T15:11:36;3.53;;;1.20;;
18090;SDS011;9172;49.948;9.208;2023-02-04T15:14:05;7.87;;;2.17;;
18090;SDS011;9172;49.948;9.208;2023-02-04T15:16:34;6.77;;;1.70;;